createdAt,value
2023-03-22T00:03:01.301Z,878.00
2023-03-22T00:07:01.452Z,878.00
2023-03-22T00:11:01.362Z,876.00
2023-03-22T00:15:01.334Z,880.00
2023-03-22T00:19:01.301Z,882.00
2023-03-22T00:23:01.205Z,878.00
2023-03-22T00:27:01.208Z,881.00
2023-03-22T00:31:01.282Z,879.00
2023-03-22T00:35:01.195Z,875.00
2023-03-22T00:39:01.064Z,877.00
2023-03-22T00:43:01.087Z,879.00
2023-03-22T00:47:01.221Z,875.00
2023-03-22T00:51:01.903Z,876.00
2023-03-22T00:55:01.135Z,868.00
2023-03-22T00:59:01.026Z,874.00
2023-03-22T01:03:00.994Z,872.00
2023-03-22T01:07:00.947Z,869.00
2023-03-22T01:11:00.920Z,866.00
2023-03-22T01:15:01.200Z,863.00
2023-03-22T01:19:01.280Z,866.00
2023-03-22T01:23:01.506Z,869.00
2023-03-22T01:27:01.686Z,866.00
2023-03-22T01:31:02.097Z,872.00
2023-03-22T01:35:01.934Z,873.00
2023-03-22T01:39:02.210Z,870.00
2023-03-22T01:43:01.833Z,865.00
2023-03-22T01:47:01.808Z,865.00
2023-03-22T01:51:01.742Z,867.00
2023-03-22T01:55:01.775Z,868.00
2023-03-22T01:59:01.679Z,869.00
2023-03-22T02:03:01.781Z,873.00
2023-03-22T02:07:01.560Z,864.00
2023-03-22T02:11:01.687Z,868.00
2023-03-22T02:15:01.736Z,870.00
2023-03-22T02:19:01.613Z,870.00
2023-03-22T02:23:01.728Z,867.00
2023-03-22T02:27:01.677Z,864.00
2023-03-22T02:31:01.547Z,862.00
2023-03-22T02:35:01.420Z,867.00
2023-03-22T02:39:01.398Z,869.00
2023-03-22T02:43:01.368Z,872.00
2023-03-22T02:47:01.327Z,860.00
2023-03-22T02:51:01.264Z,862.00
2023-03-22T02:55:01.227Z,863.00
2023-03-22T02:59:01.448Z,862.00
2023-03-22T03:03:01.490Z,863.00
2023-03-22T03:07:01.342Z,862.00
2023-03-22T03:11:01.320Z,865.00
2023-03-22T03:15:01.231Z,864.00
2023-03-22T03:19:01.263Z,864.00
2023-03-22T03:23:01.181Z,860.00
2023-03-22T03:27:01.259Z,853.00
2023-03-22T03:31:01.173Z,857.00
2023-03-22T03:35:01.097Z,849.00
2023-03-22T03:39:01.078Z,851.00
2023-03-22T03:43:01.207Z,850.00
2023-03-22T03:47:01.219Z,851.00
2023-03-22T03:51:01.139Z,852.00
2023-03-22T03:55:01.167Z,857.00
2023-03-22T03:59:01.164Z,855.00
2023-03-22T04:03:01.018Z,852.00
2023-03-22T04:07:01.046Z,852.00
2023-03-22T04:11:00.949Z,848.00
2023-03-22T04:15:01.053Z,848.00
2023-03-22T04:19:01.217Z,847.00
2023-03-22T04:23:01.685Z,851.00
2023-03-22T04:27:00.855Z,849.00
2023-03-22T04:31:00.852Z,853.00
2023-03-22T04:35:01.702Z,848.00
2023-03-22T04:39:00.827Z,852.00
2023-03-22T04:43:00.828Z,846.00
2023-03-22T04:47:00.697Z,848.00
2023-03-22T04:51:00.571Z,849.00
2023-03-22T04:55:00.601Z,842.00
2023-03-22T04:59:00.759Z,839.00
2023-03-22T05:03:00.844Z,840.00
2023-03-22T05:07:01.095Z,842.00
2023-03-22T05:11:00.956Z,841.00
2023-03-22T05:15:00.930Z,835.00
2023-03-22T05:19:00.912Z,837.00
2023-03-22T05:23:00.915Z,834.00
2023-03-22T05:27:01.008Z,834.00
2023-03-22T05:31:00.780Z,835.00
2023-03-22T05:35:00.788Z,828.00
2023-03-22T05:39:00.831Z,830.00
2023-03-22T05:43:00.715Z,825.00
2023-03-22T05:47:00.780Z,819.00
2023-03-22T05:51:00.736Z,820.00
2023-03-22T05:55:01.862Z,825.00
2023-03-22T05:59:00.700Z,825.00
2023-03-22T06:03:01.363Z,828.00
2023-03-22T06:07:00.967Z,831.00
2023-03-22T06:11:01.060Z,833.00
2023-03-22T06:15:01.108Z,831.00
2023-03-22T06:19:01.415Z,831.00
2023-03-22T06:23:01.303Z,824.00
2023-03-22T06:27:01.360Z,826.00
2023-03-22T06:31:01.760Z,827.00
2023-03-22T06:35:01.589Z,827.00
2023-03-22T06:39:01.605Z,966.00
2023-03-22T06:43:05.166Z,1120.00
2023-03-22T06:47:01.677Z,1106.00
2023-03-22T06:51:01.588Z,1099.00
2023-03-22T06:55:01.667Z,1105.00
2023-03-22T06:59:01.822Z,1107.00
2023-03-22T07:03:01.658Z,1105.00
2023-03-22T07:07:01.406Z,1104.00
2023-03-22T07:11:01.771Z,1100.00
2023-03-22T07:15:01.851Z,1098.00
2023-03-22T07:19:01.311Z,1096.00
2023-03-22T07:23:01.333Z,1092.00
2023-03-22T07:27:02.272Z,1095.00
2023-03-22T07:31:02.906Z,1104.00
2023-03-22T07:35:01.567Z,1101.00
2023-03-22T07:39:02.290Z,1223.00
2023-03-22T07:43:01.480Z,976.00
2023-03-22T07:47:01.546Z,1123.00
2023-03-22T07:51:01.793Z,1072.00
2023-03-22T07:55:01.855Z,1159.00
2023-03-22T07:59:02.220Z,1246.00
2023-03-22T08:03:02.599Z,1259.00
2023-03-22T08:07:02.198Z,1300.00
2023-03-22T08:11:02.753Z,1240.00
2023-03-22T08:15:03.150Z,1243.00
2023-03-22T08:19:04.083Z,1290.00
2023-03-22T08:23:02.123Z,1264.00
2023-03-22T08:31:21.881Z,1260.00
2023-03-22T08:35:21.224Z,1357.00
2023-03-22T08:39:21.226Z,1436.00
2023-03-22T08:43:21.066Z,1412.00
2023-03-22T08:47:21.326Z,1382.00
2023-03-22T08:51:22.020Z,1330.00
2023-03-22T08:55:20.898Z,1299.00
2023-03-22T08:59:20.896Z,1256.00
2023-03-22T09:03:20.904Z,1252.00
2023-03-22T09:07:20.780Z,1212.00
2023-03-22T09:11:21.473Z,1183.00
2023-03-22T09:15:20.858Z,1140.00
2023-03-22T09:19:20.825Z,1161.00
2023-03-22T09:23:20.700Z,1182.00
2023-03-22T09:27:20.731Z,1215.00
2023-03-22T09:31:21.081Z,1217.00
2023-03-22T09:35:20.916Z,1216.00
2023-03-22T09:39:20.898Z,1215.00
2023-03-22T09:43:29.828Z,1261.00
2023-03-22T09:47:20.997Z,1324.00
2023-03-22T09:51:20.914Z,1572.00
2023-03-22T09:55:23.644Z,1759.00
2023-03-22T09:59:21.340Z,1742.00
2023-03-22T10:03:20.893Z,1890.00
2023-03-22T10:07:20.805Z,2033.00
2023-03-22T10:11:20.858Z,2110.00
2023-03-22T10:15:20.708Z,2183.00
2023-03-22T10:19:20.701Z,2342.00
2023-03-22T10:23:20.834Z,2385.00
2023-03-22T10:27:20.623Z,2643.00
2023-03-22T10:31:20.559Z,2412.00
2023-03-22T10:43:59.057Z,1297.00
2023-03-22T10:47:58.720Z,1143.00
2023-03-22T10:51:59.032Z,1031.00
2023-03-22T10:55:59.013Z,952.00
2023-03-22T10:59:59.734Z,883.00
2023-03-22T11:03:59.510Z,805.00
2023-03-22T11:07:58.534Z,744.00
2023-03-22T11:12:00.086Z,920.00
2023-03-22T11:15:58.533Z,858.00
2023-03-22T11:19:58.414Z,731.00
2023-03-22T11:23:58.448Z,729.00
2023-03-22T11:27:58.322Z,820.00
2023-03-22T11:31:58.862Z,934.00
2023-03-22T11:35:58.766Z,1064.00
2023-03-22T11:40:00.016Z,1199.00
2023-03-22T11:43:58.829Z,1330.00
2023-03-22T11:47:58.986Z,1441.00
2023-03-22T11:51:59.068Z,1620.00
2023-03-22T11:55:59.438Z,1724.00
2023-03-22T11:59:59.050Z,1786.00
2023-03-22T12:03:59.173Z,1875.00
2023-03-22T12:07:59.104Z,1992.00
2023-03-22T12:11:59.076Z,2123.00
2023-03-22T12:15:59.057Z,2152.00
2023-03-22T12:19:59.543Z,2176.00
2023-03-22T12:23:59.026Z,2085.00
2023-03-22T12:27:58.993Z,2097.00
2023-03-22T12:31:59.122Z,2082.00
2023-03-22T12:36:00.517Z,2071.00
2023-03-22T12:39:59.083Z,2052.00
2023-03-22T12:43:59.117Z,2057.00
2023-03-22T12:47:59.299Z,2058.00
2023-03-22T12:51:59.280Z,2043.00
2023-03-22T12:55:59.183Z,2050.00
2023-03-22T12:59:59.220Z,2044.00
2023-03-22T13:03:59.457Z,2031.00
2023-03-22T13:07:59.275Z,2031.00
2023-03-22T13:11:59.534Z,2033.00
2023-03-22T13:15:59.337Z,2025.00
2023-03-22T13:19:59.298Z,2022.00
2023-03-22T13:23:59.348Z,2021.00
2023-03-22T13:28:00.472Z,2011.00
2023-03-22T13:31:59.580Z,2006.00
2023-03-22T13:35:59.586Z,2004.00
2023-03-22T13:39:59.661Z,1320.00
2023-03-22T13:43:59.848Z,749.00
2023-03-22T13:48:00.166Z,622.00
2023-03-22T13:52:00.183Z,602.00
2023-03-22T13:56:00.469Z,714.00
2023-03-22T14:00:10.254Z,711.00
2023-03-22T14:04:01.345Z,722.00
2023-03-22T14:08:00.311Z,719.00
2023-03-22T14:12:00.462Z,724.00
2023-03-22T14:16:00.730Z,718.00
2023-03-22T14:20:00.836Z,723.00
2023-03-22T14:49:01.842Z,738.00
2023-03-22T14:53:01.667Z,741.00
2023-03-22T14:57:01.543Z,738.00
2023-03-22T15:01:01.553Z,742.00
2023-03-22T15:09:01.389Z,752.00
2023-03-22T15:13:01.890Z,752.00
2023-03-22T15:17:01.538Z,750.00
2023-03-22T15:21:01.586Z,751.00
2023-03-22T15:25:01.492Z,748.00
2023-03-22T15:29:01.553Z,754.00
2023-03-22T15:33:01.467Z,756.00
2023-03-22T15:37:01.403Z,760.00
2023-03-22T15:41:01.582Z,760.00
2023-03-22T15:45:01.339Z,761.00
2023-03-22T15:49:01.309Z,766.00
2023-03-22T15:53:01.188Z,772.00
2023-03-22T15:57:01.235Z,766.00
2023-03-22T16:01:01.876Z,766.00
2023-03-22T16:05:01.144Z,775.00
2023-03-22T16:09:01.360Z,775.00
2023-03-22T16:13:01.043Z,775.00
2023-03-22T16:17:01.049Z,769.00
2023-03-22T16:21:00.932Z,772.00
2023-03-22T16:25:00.907Z,777.00
2023-03-22T16:29:00.876Z,784.00
2023-03-22T16:33:00.802Z,792.00
2023-03-22T16:37:00.824Z,788.00
2023-03-22T16:41:00.790Z,787.00
2023-03-22T16:45:00.762Z,785.00
2023-03-22T16:49:00.739Z,786.00
2023-03-22T16:53:00.749Z,787.00
2023-03-22T16:57:00.684Z,794.00
2023-03-22T17:01:00.651Z,786.00
2023-03-22T17:05:00.712Z,788.00
2023-03-22T17:09:00.657Z,790.00
2023-03-22T17:13:00.620Z,790.00
2023-03-22T17:17:00.649Z,791.00
2023-03-22T17:21:00.685Z,786.00
2023-03-22T17:25:00.839Z,783.00
2023-03-22T17:29:00.669Z,789.00
2023-03-22T17:33:01.845Z,790.00
2023-03-22T17:37:00.658Z,784.00
2023-03-22T17:41:02.179Z,785.00
2023-03-22T17:45:00.713Z,795.00
2023-03-22T17:49:00.744Z,789.00
2023-03-22T17:53:00.756Z,794.00
2023-03-22T18:01:00.825Z,789.00
2023-03-22T18:05:00.920Z,790.00
2023-03-22T18:09:00.675Z,789.00
2023-03-22T18:13:00.612Z,798.00
2023-03-22T18:17:00.675Z,791.00
2023-03-22T18:21:00.815Z,790.00
2023-03-22T18:25:00.953Z,791.00
2023-03-22T18:29:01.378Z,791.00
2023-03-22T18:33:05.893Z,785.00
2023-03-22T18:37:01.522Z,784.00
2023-03-22T18:45:01.690Z,790.00
2023-03-22T18:49:00.319Z,788.00
2023-03-22T18:53:17.905Z,786.00
2023-03-22T18:57:01.226Z,790.00
2023-03-22T19:01:00.236Z,793.00
2023-03-22T19:05:00.451Z,791.00
2023-03-22T19:09:00.180Z,786.00
2023-03-22T19:13:00.571Z,790.00
2023-03-22T19:17:00.360Z,793.00
2023-03-22T19:21:11.208Z,797.00
2023-03-22T19:25:01.354Z,795.00
2023-03-22T19:29:00.492Z,796.00
2023-03-22T19:33:23.929Z,797.00
2023-03-22T19:37:01.252Z,795.00
2023-03-22T19:41:38.706Z,793.00
2023-03-22T19:45:03.073Z,799.00
2023-03-22T19:49:00.144Z,798.00
2023-03-22T19:53:14.378Z,797.00
2023-03-22T19:57:01.095Z,791.00
2023-03-22T20:01:00.090Z,791.00
2023-03-22T20:05:02.888Z,791.00
2023-03-22T20:09:01.023Z,791.00
2023-03-22T20:13:00.139Z,785.00
2023-03-22T20:17:06.844Z,786.00
2023-03-22T20:21:00.981Z,787.00
2023-03-22T20:24:59.943Z,779.00
2023-03-22T20:29:00.014Z,784.00
2023-03-22T20:33:00.246Z,788.00
2023-03-22T20:37:00.317Z,787.00
2023-03-22T20:41:00.494Z,795.00
2023-03-22T20:45:00.672Z,790.00
2023-03-22T20:49:00.790Z,784.00
2023-03-22T20:53:01.053Z,786.00
2023-03-22T20:57:01.103Z,781.00
2023-03-22T21:01:01.276Z,781.00
2023-03-22T21:05:01.456Z,785.00
2023-03-22T21:09:01.628Z,787.00
2023-03-22T21:13:01.729Z,792.00
2023-03-22T21:17:02.933Z,790.00
2023-03-22T21:21:01.999Z,789.00
2023-03-22T21:25:02.075Z,792.00
2023-03-22T21:29:03.033Z,789.00
2023-03-22T21:33:03.454Z,791.00
2023-03-22T21:37:02.668Z,794.00
2023-03-22T21:41:02.954Z,797.00
2023-03-22T21:45:02.980Z,795.00
2023-03-22T21:49:03.166Z,795.00
2023-03-22T21:53:03.312Z,793.00
2023-03-22T21:57:03.492Z,795.00
2023-03-22T22:01:03.835Z,796.00
2023-03-22T22:05:03.976Z,800.00
2023-03-22T22:09:05.052Z,798.00
2023-03-22T22:13:04.323Z,791.00
2023-03-22T22:17:04.577Z,796.00
2023-03-22T22:21:04.714Z,797.00
2023-03-22T22:25:04.898Z,797.00
2023-03-22T22:29:05.075Z,797.00
2023-03-22T22:33:05.294Z,802.00
2023-03-22T22:37:05.634Z,798.00
2023-03-22T22:41:06.048Z,798.00
2023-03-22T22:45:05.937Z,800.00
2023-03-22T22:49:09.026Z,799.00
2023-03-22T22:53:06.164Z,796.00
2023-03-22T22:57:06.037Z,798.00
2023-03-22T23:01:06.109Z,804.00
2023-03-22T23:05:05.987Z,801.00
2023-03-22T23:09:05.971Z,796.00
2023-03-22T23:13:05.913Z,800.00
2023-03-22T23:17:06.007Z,797.00
2023-03-22T23:21:05.818Z,791.00
2023-03-22T23:25:05.805Z,792.00
2023-03-22T23:29:05.742Z,795.00
2023-03-22T23:33:05.964Z,796.00
2023-03-22T23:37:05.964Z,799.00
2023-03-22T23:41:05.935Z,797.00
2023-03-22T23:45:05.866Z,803.00
2023-03-22T23:49:05.842Z,804.00
2023-03-22T23:53:05.811Z,795.00
2023-03-22T23:57:05.765Z,791.00
